Terminal Aerodrome Forecast
Issued by NWS

Home | Current Version | Previous Version | Text Only | Print | Product List | Glossary On
Versions: 1 2 3 4 5 6 7 8 9 10 11 12 13 14
000
FTUS43 KGLD 111120
TAFMCK
TAF
KMCK 111120Z 1112/1212 29013KT P6SM BKN200 WS020/33045KT
     FM111300 29012KT P6SM BKN200
     FM111600 30016G26KT P6SM BKN180
     FM111800 33027G38KT P6SM BKN180
     FM120000 35013KT P6SM SCT040 SCT120
     FM120300 33009KT P6SM SKC
     FM120700 29006KT P6SM FEW015=

USA.gov is the U.S. government's official web portal to all federal, state and local government web resources and services.